sensor_id;sensor_type;location;lat;lon;timestamp;temperature;humidity
62476;DHT22;50739;45.670;11.936;2022-07-11T00:02:11;24.15;62.89
62476;DHT22;50739;45.670;11.936;2022-07-11T00:07:15;23.93;63.65
62476;DHT22;50739;45.670;11.936;2022-07-11T00:12:17;23.87;63.74
62476;DHT22;50739;45.670;11.936;2022-07-11T00:17:20;23.78;64.12
62476;DHT22;50739;45.670;11.936;2022-07-11T00:22:24;23.84;63.86
62476;DHT22;50739;45.670;11.936;2022-07-11T00:27:26;23.67;64.52
62476;DHT22;50739;45.670;11.936;2022-07-11T00:32:27;23.74;64.11
62476;DHT22;50739;45.670;11.936;2022-07-11T00:37:31;23.82;63.77
62476;DHT22;50739;45.670;11.936;2022-07-11T00:42:32;23.89;63.51
62476;DHT22;50739;45.670;11.936;2022-07-11T00:47:34;23.82;63.58
62476;DHT22;50739;45.670;11.936;2022-07-11T00:52:37;23.68;64.07
62476;DHT22;50739;45.670;11.936;2022-07-11T00:57:39;23.61;64.50
62476;DHT22;50739;45.670;11.936;2022-07-11T01:02:41;23.43;65.65
62476;DHT22;50739;45.670;11.936;2022-07-11T01:07:44;23.45;65.70
62476;DHT22;50739;45.670;11.936;2022-07-11T01:12:46;23.50;65.52
62476;DHT22;50739;45.670;11.936;2022-07-11T01:17:48;23.47;65.75
62476;DHT22;50739;45.670;11.936;2022-07-11T01:22:54;23.49;65.75
62476;DHT22;50739;45.670;11.936;2022-07-11T01:27:58;23.66;65.25
62476;DHT22;50739;45.670;11.936;2022-07-11T01:33:00;23.51;65.95
62476;DHT22;50739;45.670;11.936;2022-07-11T01:38:02;23.49;66.34
62476;DHT22;50739;45.670;11.936;2022-07-11T01:43:05;23.49;66.40
62476;DHT22;50739;45.670;11.936;2022-07-11T01:48:07;23.51;66.14
62476;DHT22;50739;45.670;11.936;2022-07-11T01:53:11;23.68;65.47
62476;DHT22;50739;45.670;11.936;2022-07-11T01:58:14;23.63;65.76
62476;DHT22;50739;45.670;11.936;2022-07-11T02:03:16;23.61;66.03
62476;DHT22;50739;45.670;11.936;2022-07-11T02:08:18;23.57;66.08
62476;DHT22;50739;45.670;11.936;2022-07-11T02:13:22;23.47;66.52
62476;DHT22;50739;45.670;11.936;2022-07-11T02:18:24;23.53;66.22
62476;DHT22;50739;45.670;11.936;2022-07-11T02:23:26;23.45;66.20
62476;DHT22;50739;45.670;11.936;2022-07-11T02:28:30;23.40;66.37
62476;DHT22;50739;45.670;11.936;2022-07-11T02:33:32;23.40;66.23
62476;DHT22;50739;45.670;11.936;2022-07-11T02:38:34;23.40;66.04
62476;DHT22;50739;45.670;11.936;2022-07-11T02:43:37;23.34;65.76
62476;DHT22;50739;45.670;11.936;2022-07-11T02:48:39;23.29;65.69
62476;DHT22;50739;45.670;11.936;2022-07-11T02:53:40;23.19;65.33
62476;DHT22;50739;45.670;11.936;2022-07-11T02:58:44;23.19;64.97
62476;DHT22;50739;45.670;11.936;2022-07-11T03:03:45;23.05;65.23
62476;DHT22;50739;45.670;11.936;2022-07-11T03:08:47;22.94;65.79
62476;DHT22;50739;45.670;11.936;2022-07-11T03:13:51;23.02;65.37
62476;DHT22;50739;45.670;11.936;2022-07-11T03:18:53;22.96;65.54
62476;DHT22;50739;45.670;11.936;2022-07-11T03:23:54;22.88;65.33
62476;DHT22;50739;45.670;11.936;2022-07-11T03:28:58;22.71;65.63
62476;DHT22;50739;45.670;11.936;2022-07-11T03:34:00;22.74;65.37
62476;DHT22;50739;45.670;11.936;2022-07-11T03:39:02;22.75;64.81
62476;DHT22;50739;45.670;11.936;2022-07-11T03:44:05;22.75;64.56
62476;DHT22;50739;45.670;11.936;2022-07-11T03:49:07;22.64;64.80
62476;DHT22;50739;45.670;11.936;2022-07-11T03:54:09;22.65;64.23
62476;DHT22;50739;45.670;11.936;2022-07-11T03:59:12;22.57;64.35
62476;DHT22;50739;45.670;11.936;2022-07-11T04:04:14;22.69;63.42
62476;DHT22;50739;45.670;11.936;2022-07-11T04:09:15;22.64;63.03
62476;DHT22;50739;45.670;11.936;2022-07-11T04:14:19;22.65;62.61
62476;DHT22;50739;45.670;11.936;2022-07-11T04:19:23;22.76;61.44
62476;DHT22;50739;45.670;11.936;2022-07-11T04:24:25;22.79;61.31
62476;DHT22;50739;45.670;11.936;2022-07-11T04:29:28;22.68;61.68
62476;DHT22;50739;45.670;11.936;2022-07-11T04:34:30;22.72;60.91
62476;DHT22;50739;45.670;11.936;2022-07-11T04:39:32;22.76;60.30
62476;DHT22;50739;45.670;11.936;2022-07-11T04:44:35;22.65;60.50
62476;DHT22;50739;45.670;11.936;2022-07-11T04:49:37;22.68;60.21
62476;DHT22;50739;45.670;11.936;2022-07-11T04:54:39;22.78;59.74
62476;DHT22;50739;45.670;11.936;2022-07-11T04:59:42;22.72;59.74
62476;DHT22;50739;45.670;11.936;2022-07-11T05:04:44;22.68;60.10
62476;DHT22;50739;45.670;11.936;2022-07-11T05:09:46;22.85;59.41
62476;DHT22;50739;45.670;11.936;2022-07-11T05:14:50;22.81;59.25
62476;DHT22;50739;45.670;11.936;2022-07-11T05:19:52;22.79;59.34
62476;DHT22;50739;45.670;11.936;2022-07-11T05:24:53;22.85;59.15
62476;DHT22;50739;45.670;11.936;2022-07-11T05:29:57;22.95;58.81
62476;DHT22;50739;45.670;11.936;2022-07-11T05:34:59;22.91;59.04
62476;DHT22;50739;45.670;11.936;2022-07-11T05:40:03;23.09;58.68
62476;DHT22;50739;45.670;11.936;2022-07-11T05:45:08;23.05;59.22
62476;DHT22;50739;45.670;11.936;2022-07-11T05:50:10;23.09;59.24
62476;DHT22;50739;45.670;11.936;2022-07-11T05:55:11;23.09;58.54
62476;DHT22;50739;45.670;11.936;2022-07-11T06:00:15;23.03;58.58
62476;DHT22;50739;45.670;11.936;2022-07-11T06:05:17;22.84;58.53
62476;DHT22;50739;45.670;11.936;2022-07-11T06:10:18;22.79;58.42
62476;DHT22;50739;45.670;11.936;2022-07-11T06:15:22;22.71;59.07
62476;DHT22;50739;45.670;11.936;2022-07-11T06:20:23;22.84;58.30
62476;DHT22;50739;45.670;11.936;2022-07-11T06:25:25;23.09;57.47
62476;DHT22;50739;45.670;11.936;2022-07-11T06:30:28;23.13;57.74
62476;DHT22;50739;45.670;11.936;2022-07-11T06:35:31;23.13;57.33
62476;DHT22;50739;45.670;11.936;2022-07-11T06:40:34;23.06;58.10
62476;DHT22;50739;45.670;11.936;2022-07-11T06:45:38;23.22;57.29
62476;DHT22;50739;45.670;11.936;2022-07-11T06:50:40;23.23;57.72
62476;DHT22;50739;45.670;11.936;2022-07-11T06:55:42;23.38;57.55
62476;DHT22;50739;45.670;11.936;2022-07-11T07:00:45;23.54;56.56
62476;DHT22;50739;45.670;11.936;2022-07-11T07:05:47;23.66;56.41
62476;DHT22;50739;45.670;11.936;2022-07-11T07:10:49;23.75;55.40
62476;DHT22;50739;45.670;11.936;2022-07-11T07:15:52;23.78;55.23
62476;DHT22;50739;45.670;11.936;2022-07-11T07:20:54;24.09;55.89
62476;DHT22;50739;45.670;11.936;2022-07-11T07:25:56;24.28;55.00
62476;DHT22;50739;45.670;11.936;2022-07-11T07:30:59;24.33;55.02
62476;DHT22;50739;45.670;11.936;2022-07-11T07:36:01;24.50;54.38
62476;DHT22;50739;45.670;11.936;2022-07-11T07:41:03;24.50;53.98
62476;DHT22;50739;45.670;11.936;2022-07-11T07:46:06;24.74;53.52
62476;DHT22;50739;45.670;11.936;2022-07-11T07:51:09;24.84;53.82
62476;DHT22;50739;45.670;11.936;2022-07-11T07:56:11;24.81;53.86
62476;DHT22;50739;45.670;11.936;2022-07-11T08:01:14;25.07;52.51
62476;DHT22;50739;45.670;11.936;2022-07-11T08:06:34;25.04;52.98
62476;DHT22;50739;45.670;11.936;2022-07-11T08:11:36;25.12;53.05
62476;DHT22;50739;45.670;11.936;2022-07-11T08:16:40;25.10;52.82
62476;DHT22;50739;45.670;11.936;2022-07-11T08:21:42;25.35;52.77
62476;DHT22;50739;45.670;11.936;2022-07-11T08:26:44;25.73;52.34
62476;DHT22;50739;45.670;11.936;2022-07-11T08:31:47;25.94;51.17
62476;DHT22;50739;45.670;11.936;2022-07-11T08:36:49;26.25;50.70
62476;DHT22;50739;45.670;11.936;2022-07-11T08:41:51;26.17;50.96
62476;DHT22;50739;45.670;11.936;2022-07-11T08:46:57;26.25;51.78
62476;DHT22;50739;45.670;11.936;2022-07-11T08:52:00;26.55;50.37
62476;DHT22;50739;45.670;11.936;2022-07-11T08:57:03;26.87;49.99
62476;DHT22;50739;45.670;11.936;2022-07-11T09:02:09;26.84;50.43
62476;DHT22;50739;45.670;11.936;2022-07-11T09:07:11;26.94;49.91
62476;DHT22;50739;45.670;11.936;2022-07-11T09:12:15;26.93;49.91
62476;DHT22;50739;45.670;11.936;2022-07-11T09:17:24;27.11;50.03
62476;DHT22;50739;45.670;11.936;2022-07-11T09:22:27;27.23;50.10
62476;DHT22;50739;45.670;11.936;2022-07-11T09:27:48;26.97;50.25
62476;DHT22;50739;45.670;11.936;2022-07-11T09:32:57;27.03;50.03
62476;DHT22;50739;45.670;11.936;2022-07-11T09:38:02;26.97;50.17
62476;DHT22;50739;45.670;11.936;2022-07-11T09:43:04;27.04;50.40
62476;DHT22;50739;45.670;11.936;2022-07-11T09:48:10;27.30;49.79
62476;DHT22;50739;45.670;11.936;2022-07-11T09:53:13;27.30;49.89
62476;DHT22;50739;45.670;11.936;2022-07-11T09:58:16;27.20;50.76
62476;DHT22;50739;45.670;11.936;2022-07-11T10:03:21;27.20;50.40
62476;DHT22;50739;45.670;11.936;2022-07-11T10:08:24;27.47;50.42
62476;DHT22;50739;45.670;11.936;2022-07-11T10:13:29;28.02;49.06
62476;DHT22;50739;45.670;11.936;2022-07-11T10:18:37;27.85;49.42
62476;DHT22;50739;45.670;11.936;2022-07-11T10:23:46;27.99;49.62
62476;DHT22;50739;45.670;11.936;2022-07-11T10:28:54;27.96;49.03
62476;DHT22;50739;45.670;11.936;2022-07-11T10:34:03;27.95;49.45
62476;DHT22;50739;45.670;11.936;2022-07-11T10:39:18;28.00;49.34
62476;DHT22;50739;45.670;11.936;2022-07-11T10:44:27;28.16;49.09
62476;DHT22;50739;45.670;11.936;2022-07-11T10:49:40;28.13;49.56
62476;DHT22;50739;45.670;11.936;2022-07-11T10:54:59;28.34;50.47
62476;DHT22;50739;45.670;11.936;2022-07-11T11:00:05;28.34;50.93
62476;DHT22;50739;45.670;11.936;2022-07-11T11:05:10;28.51;50.81
62476;DHT22;50739;45.670;11.936;2022-07-11T11:10:45;28.89;50.70
62476;DHT22;50739;45.670;11.936;2022-07-11T11:15:49;29.31;50.17
62476;DHT22;50739;45.670;11.936;2022-07-11T11:21:14;29.42;48.42
62476;DHT22;50739;45.670;11.936;2022-07-11T11:26:18;29.20;48.44
62476;DHT22;50739;45.670;11.936;2022-07-11T11:31:21;28.94;49.85
62476;DHT22;50739;45.670;11.936;2022-07-11T11:36:25;29.10;50.33
62476;DHT22;50739;45.670;11.936;2022-07-11T11:41:29;29.37;50.12
62476;DHT22;50739;45.670;11.936;2022-07-11T11:46:31;29.07;50.12
62476;DHT22;50739;45.670;11.936;2022-07-11T11:51:35;28.78;51.37
62476;DHT22;50739;45.670;11.936;2022-07-11T11:56:38;29.09;50.78
62476;DHT22;50739;45.670;11.936;2022-07-11T12:01:42;28.75;50.95
62476;DHT22;50739;45.670;11.936;2022-07-11T12:06:46;28.75;50.92
62476;DHT22;50739;45.670;11.936;2022-07-11T12:11:50;28.75;52.13
62476;DHT22;50739;45.670;11.936;2022-07-11T12:17:12;28.69;52.36
62476;DHT22;50739;45.670;11.936;2022-07-11T12:22:15;28.76;51.80
62476;DHT22;50739;45.670;11.936;2022-07-11T12:27:18;28.71;52.17
62476;DHT22;50739;45.670;11.936;2022-07-11T12:32:20;28.64;51.93
62476;DHT22;50739;45.670;11.936;2022-07-11T12:37:24;28.74;51.43
62476;DHT22;50739;45.670;11.936;2022-07-11T12:42:29;28.96;51.10
62476;DHT22;50739;45.670;11.936;2022-07-11T12:47:32;28.96;49.74
62476;DHT22;50739;45.670;11.936;2022-07-11T12:52:39;28.91;49.92
62476;DHT22;50739;45.670;11.936;2022-07-11T12:57:41;29.13;49.92
62476;DHT22;50739;45.670;11.936;2022-07-11T13:02:48;29.75;48.54
62476;DHT22;50739;45.670;11.936;2022-07-11T13:07:52;29.42;49.28
62476;DHT22;50739;45.670;11.936;2022-07-11T13:13:11;29.07;49.51
62476;DHT22;50739;45.670;11.936;2022-07-11T13:18:13;28.80;50.51
62476;DHT22;50739;45.670;11.936;2022-07-11T13:23:16;28.44;51.29
62476;DHT22;50739;45.670;11.936;2022-07-11T13:28:18;28.47;51.63
62476;DHT22;50739;45.670;11.936;2022-07-11T13:33:21;28.75;51.24
62476;DHT22;50739;45.670;11.936;2022-07-11T13:38:24;29.07;50.30
62476;DHT22;50739;45.670;11.936;2022-07-11T13:43:26;29.35;50.28
62476;DHT22;50739;45.670;11.936;2022-07-11T13:48:29;30.43;47.92
62476;DHT22;50739;45.670;11.936;2022-07-11T13:53:33;30.68;48.19
62476;DHT22;50739;45.670;11.936;2022-07-11T13:58:34;31.59;45.76
62476;DHT22;50739;45.670;11.936;2022-07-11T14:03:36;30.98;46.96
62476;DHT22;50739;45.670;11.936;2022-07-11T14:08:39;30.70;46.36
62476;DHT22;50739;45.670;11.936;2022-07-11T14:13:41;30.19;46.95
62476;DHT22;50739;45.670;11.936;2022-07-11T14:18:44;31.39;46.35
62476;DHT22;50739;45.670;11.936;2022-07-11T14:23:47;32.48;43.79
62476;DHT22;50739;45.670;11.936;2022-07-11T14:28:49;31.85;45.24
62476;DHT22;50739;45.670;11.936;2022-07-11T14:33:53;31.03;47.04
62476;DHT22;50739;45.670;11.936;2022-07-11T14:38:56;30.61;48.24
62476;DHT22;50739;45.670;11.936;2022-07-11T14:43:58;30.35;48.89
62476;DHT22;50739;45.670;11.936;2022-07-11T14:49:01;29.99;49.84
62476;DHT22;50739;45.670;11.936;2022-07-11T14:54:07;29.97;49.91
62476;DHT22;50739;45.670;11.936;2022-07-11T14:59:08;29.84;50.45
62476;DHT22;50739;45.670;11.936;2022-07-11T15:04:10;29.84;50.54
62476;DHT22;50739;45.670;11.936;2022-07-11T15:09:14;30.20;49.61
62476;DHT22;50739;45.670;11.936;2022-07-11T15:14:30;30.02;50.28
62476;DHT22;50739;45.670;11.936;2022-07-11T15:19:32;29.65;51.13
62476;DHT22;50739;45.670;11.936;2022-07-11T15:24:35;29.68;51.03
62476;DHT22;50739;45.670;11.936;2022-07-11T15:29:37;29.84;51.56
62476;DHT22;50739;45.670;11.936;2022-07-11T15:34:38;29.85;51.32
62476;DHT22;50739;45.670;11.936;2022-07-11T15:39:42;29.75;51.48
62476;DHT22;50739;45.670;11.936;2022-07-11T15:44:43;29.72;51.71
62476;DHT22;50739;45.670;11.936;2022-07-11T15:49:45;29.53;51.86
62476;DHT22;50739;45.670;11.936;2022-07-11T15:54:49;29.16;53.06
62476;DHT22;50739;45.670;11.936;2022-07-11T15:59:50;29.20;52.90
62476;DHT22;50739;45.670;11.936;2022-07-11T16:04:52;29.09;52.99
62476;DHT22;50739;45.670;11.936;2022-07-11T16:09:56;28.95;53.42
62476;DHT22;50739;45.670;11.936;2022-07-11T16:15:01;28.92;53.85
62476;DHT22;50739;45.670;11.936;2022-07-11T16:20:05;29.50;52.87
62476;DHT22;50739;45.670;11.936;2022-07-11T16:25:09;29.10;53.35
62476;DHT22;50739;45.670;11.936;2022-07-11T16:30:12;28.83;54.31
62476;DHT22;50739;45.670;11.936;2022-07-11T16:35:15;28.60;54.39
62476;DHT22;50739;45.670;11.936;2022-07-11T16:40:18;28.54;54.60
62476;DHT22;50739;45.670;11.936;2022-07-11T16:45:37;28.69;53.90
62476;DHT22;50739;45.670;11.936;2022-07-11T16:50:39;28.64;54.15
62476;DHT22;50739;45.670;11.936;2022-07-11T16:55:43;29.33;52.62
62476;DHT22;50739;45.670;11.936;2022-07-11T17:00:45;28.79;53.99
62476;DHT22;50739;45.670;11.936;2022-07-11T17:05:47;28.67;53.89
62476;DHT22;50739;45.670;11.936;2022-07-11T17:10:50;28.99;52.44
62476;DHT22;50739;45.670;11.936;2022-07-11T17:15:52;28.61;53.12
62476;DHT22;50739;45.670;11.936;2022-07-11T17:20:54;28.16;54.26
62476;DHT22;50739;45.670;11.936;2022-07-11T17:25:57;28.00;54.60
62476;DHT22;50739;45.670;11.936;2022-07-11T17:30:59;27.78;54.75
62476;DHT22;50739;45.670;11.936;2022-07-11T17:36:03;27.54;55.53
62476;DHT22;50739;45.670;11.936;2022-07-11T17:41:08;27.52;55.96
62476;DHT22;50739;45.670;11.936;2022-07-11T17:46:09;27.41;55.77
62476;DHT22;50739;45.670;11.936;2022-07-11T17:51:12;27.37;56.22
62476;DHT22;50739;45.670;11.936;2022-07-11T17:56:15;27.20;56.73
62476;DHT22;50739;45.670;11.936;2022-07-11T18:01:17;27.13;56.77
62476;DHT22;50739;45.670;11.936;2022-07-11T18:06:19;26.93;57.20
62476;DHT22;50739;45.670;11.936;2022-07-11T18:11:22;26.86;57.31
62476;DHT22;50739;45.670;11.936;2022-07-11T18:16:24;26.92;56.97
62476;DHT22;50739;45.670;11.936;2022-07-11T18:21:26;26.68;57.46
62476;DHT22;50739;45.670;11.936;2022-07-11T18:26:29;26.65;57.77
62476;DHT22;50739;45.670;11.936;2022-07-11T18:31:31;26.51;58.00
62476;DHT22;50739;45.670;11.936;2022-07-11T18:36:33;26.52;57.74
62476;DHT22;50739;45.670;11.936;2022-07-11T18:41:36;26.45;57.72
62476;DHT22;50739;45.670;11.936;2022-07-11T18:46:38;26.29;58.30
62476;DHT22;50739;45.670;11.936;2022-07-11T18:51:40;26.17;58.48
62476;DHT22;50739;45.670;11.936;2022-07-11T18:56:43;26.08;58.83
62476;DHT22;50739;45.670;11.936;2022-07-11T19:01:45;26.10;58.84
62476;DHT22;50739;45.670;11.936;2022-07-11T19:06:47;26.07;59.07
62476;DHT22;50739;45.670;11.936;2022-07-11T19:11:50;25.98;59.69
62476;DHT22;50739;45.670;11.936;2022-07-11T19:16:52;26.05;59.58
62476;DHT22;50739;45.670;11.936;2022-07-11T19:21:54;25.96;59.95
62476;DHT22;50739;45.670;11.936;2022-07-11T19:26:57;25.90;59.99
62476;DHT22;50739;45.670;11.936;2022-07-11T19:31:59;25.93;59.60
62476;DHT22;50739;45.670;11.936;2022-07-11T19:37:01;25.74;60.12
62476;DHT22;50739;45.670;11.936;2022-07-11T19:42:04;25.76;60.17
62476;DHT22;50739;45.670;11.936;2022-07-11T19:47:06;25.73;60.31
62476;DHT22;50739;45.670;11.936;2022-07-11T19:52:08;25.74;60.23
62476;DHT22;50739;45.670;11.936;2022-07-11T19:57:11;25.66;60.61
62476;DHT22;50739;45.670;11.936;2022-07-11T20:02:25;25.67;59.98
62476;DHT22;50739;45.670;11.936;2022-07-11T20:07:28;25.73;60.30
62476;DHT22;50739;45.670;11.936;2022-07-11T20:12:32;25.65;61.01
62476;DHT22;50739;45.670;11.936;2022-07-11T20:17:33;25.58;60.76
62476;DHT22;50739;45.670;11.936;2022-07-11T20:22:35;25.61;59.71
62476;DHT22;50739;45.670;11.936;2022-07-11T20:27:39;25.58;60.11
62476;DHT22;50739;45.670;11.936;2022-07-11T20:32:41;25.63;59.61
62476;DHT22;50739;45.670;11.936;2022-07-11T20:37:43;25.62;60.23
62476;DHT22;50739;45.670;11.936;2022-07-11T20:42:46;25.70;59.84
62476;DHT22;50739;45.670;11.936;2022-07-11T20:47:48;25.66;59.87
62476;DHT22;50739;45.670;11.936;2022-07-11T20:52:50;25.72;59.80
62476;DHT22;50739;45.670;11.936;2022-07-11T20:57:53;25.65;59.86
62476;DHT22;50739;45.670;11.936;2022-07-11T21:02:55;25.61;60.60
62476;DHT22;50739;45.670;11.936;2022-07-11T21:07:57;25.65;60.06
62476;DHT22;50739;45.670;11.936;2022-07-11T21:13:00;25.70;60.06
62476;DHT22;50739;45.670;11.936;2022-07-11T21:18:02;25.59;60.47
62476;DHT22;50739;45.670;11.936;2022-07-11T21:23:04;25.56;60.80
62476;DHT22;50739;45.670;11.936;2022-07-11T21:28:07;25.55;60.44
62476;DHT22;50739;45.670;11.936;2022-07-11T21:33:09;25.56;60.19
62476;DHT22;50739;45.670;11.936;2022-07-11T21:38:11;25.58;60.56
62476;DHT22;50739;45.670;11.936;2022-07-11T21:43:15;25.58;60.25
62476;DHT22;50739;45.670;11.936;2022-07-11T21:48:17;25.53;60.31
62476;DHT22;50739;45.670;11.936;2022-07-11T21:53:19;25.49;60.88
62476;DHT22;50739;45.670;11.936;2022-07-11T21:58:23;25.52;60.99
62476;DHT22;50739;45.670;11.936;2022-07-11T22:03:24;25.46;62.78
62476;DHT22;50739;45.670;11.936;2022-07-11T22:08:27;25.43;63.48
62476;DHT22;50739;45.670;11.936;2022-07-11T22:13:33;25.45;63.83
62476;DHT22;50739;45.670;11.936;2022-07-11T22:18:35;25.28;64.50
62476;DHT22;50739;45.670;11.936;2022-07-11T22:23:37;25.24;65.04
62476;DHT22;50739;45.670;11.936;2022-07-11T22:28:40;25.08;65.14
62476;DHT22;50739;45.670;11.936;2022-07-11T22:33:42;25.07;65.01
62476;DHT22;50739;45.670;11.936;2022-07-11T22:38:44;25.17;64.44
62476;DHT22;50739;45.670;11.936;2022-07-11T22:43:47;25.07;64.83
62476;DHT22;50739;45.670;11.936;2022-07-11T22:48:49;25.10;65.03
62476;DHT22;50739;45.670;11.936;2022-07-11T22:53:51;25.05;65.68
62476;DHT22;50739;45.670;11.936;2022-07-11T22:58:54;24.92;66.21
62476;DHT22;50739;45.670;11.936;2022-07-11T23:03:56;24.83;66.88
62476;DHT22;50739;45.670;11.936;2022-07-11T23:08:58;24.77;66.83
62476;DHT22;50739;45.670;11.936;2022-07-11T23:14:01;24.71;67.11
62476;DHT22;50739;45.670;11.936;2022-07-11T23:19:03;24.79;67.00
62476;DHT22;50739;45.670;11.936;2022-07-11T23:24:05;24.71;68.08
62476;DHT22;50739;45.670;11.936;2022-07-11T23:29:08;24.46;69.10
62476;DHT22;50739;45.670;11.936;2022-07-11T23:34:10;24.28;69.47
62476;DHT22;50739;45.670;11.936;2022-07-11T23:39:12;24.22;69.60
62476;DHT22;50739;45.670;11.936;2022-07-11T23:44:16;24.11;69.66
62476;DHT22;50739;45.670;11.936;2022-07-11T23:49:18;24.01;69.83
62476;DHT22;50739;45.670;11.936;2022-07-11T23:54:20;23.95;69.94
62476;DHT22;50739;45.670;11.936;2022-07-11T23:59:23;24.01;69.37
